Air Resources Laboratory banner image
Air Resources Laboratory web site National Oceanic and Atmospheric Administration (NOAA)

nd metar


KBIS 201552Z 29004KT 10SM CLR 02/M03 A2999 RMK AO2 SLP179 T00221033=
KDIK 201556Z AUTO 27014KT 10SM CLR 01/M03 A2998 RMK AO2 SLP182 T00111033=
KDVL 201556Z AUTO 33009KT 10SM OVC012 M01/M02 A2991 RMK AO2 SLP170 T10061022
 FZRANO=
KFAR 201553Z 21011KT 10SM OVC023 M04/M07 A2995 RMK AO2 SLP163 T10441067=
KGFK 201553Z 22004KT 10SM OVC030 M03/M06 A2991 RMK AO2 SLP146 T10331061=
KHEI 201553Z AUTO 29012KT 10SM CLR 02/M02 A3003 RMK AO2 SLP199 T00171022=
KISN 201552Z AUTO 22006KT 10SM CLR 01/M03 A2999 RMK AO2 SLP180 T00061028=
KJMS 201556Z AUTO 29012KT 10SM OVC023 01/M02 A2992 RMK AO2 SLP164 T00061017=
KMIB 201556Z AUTO 31012KT 10SM OVC050 01/M01 A2991 RMK AO2 SLP159 T00131013 $=
KMOT 201554Z 27008KT 10SM OVC050 02/M01 A2992 RMK AO2 SLP159 T00221011=
KN60 201552Z AUTO 02/M02 A2993 RMK AO1 SLP163 P0001 T00171017 $=
KRDR 201556Z AUTO 33010KT 10SM OVC024 00/M03 A2990 RMK AO2 UPB15E35 OVC V BKN
 SLP148 P0000 T10011033 $=